ENDU

Bardufoss Airport

Målselv, Norway
METAR ENDU 172250Z AUTO 00000KT 9999 BKN130/// 17/14 Q1018 RMK WIND 1100FT 02005KT WIND 2200FT 08007KT
Observed Flight Rules
Jul-17 @ 22:50 UTC (33 minutes ago) Visual Flight Rules
Visibility Clouds
10,000+ meters
  • Broken at 13,000' AGL
Temperatures Readings
Current 17°C / 63°F
Dewpoint 14°C / 57°F
Humidity 83%
Altimeter 30.06" Hg
Pressure 1018 hPa
Elevation 79
METAR ENDU 172250Z AUTO 00000KT 9999 BKN130/// 17/14 Q1018 RMK WIND 1100FT 02005KT WIND 2200FT 08007KT
Observed Flight Rules
Jul-17 @ 22:50 UTC
(33 minutes ago)
VFR
Clouds
  • Broken at 13,000' AGL
Temperature Dewpoint
17°C / 63°F 14°C / 57°F
Humidity Altimeter Pressure
83% 30.06" Hg 1018 hPa